Crossville Memorial Whitson Field
KCSV : now visible

Airfield :











YOU CAN JOIN US ON...

 
LOGIN :

Register | Disclaimer

   EN    FR    IT 

 









Legend :    VFR   Marginal VFR   IFR   Intensive IFR   Very Intensive IFR
Visi :
Ceiling :
>= 8 km
>= 3000ft
5 to 8 km
1000 to 3000 ft
1500m to 5 km
500 to 1000 ft
800 to 1500m
200 to 500 ft
< 800m
< 200 ft
Symbols :   Thunderstorms  Fog  Heavy snow  Heavy precipitations  Wind > 20 kt






- Airport Elevation : 1881 ft


KCSV - Crossville Memorial Whitson Field

CURRENT METAR :
  • 241224Z AUTO 03006KT 1/4SM FG VV002 14/14 A3008 RMK AO2 T01440139 $

EXPIRED METARs :
  • 241203Z AUTO 03006KT 1 3/4SM BR OVC003 15/14 A3008 RMK AO2 T01500144 $
  • 241153Z AUTO 06005KT 5SM BR OVC003 16/14 A3008 RMK AO2 SLP171 60032 70086 T01560144 10161 20156 56003 $
  • 241122Z AUTO 01004KT 10SM OVC004 16/14 A3009 RMK AO2 CIG 003V007 T01560144 $
  • 241108Z AUTO 04003KT 10SM OVC005 16/14 A3008 RMK AO2 CIG 002V007 T01560144 $
  • 241053Z AUTO 04005KT 8SM OVC003 16/14 A3008 RMK AO2 RAE0958 CIG 002V005 SLP172 P0000 T01560144 $
  • 241041Z AUTO 05004KT 8SM OVC003 16/15 A3008 RMK AO2 RAE0958 CIG 002V006 P0000 T01610150 $
  • 240953Z AUTO 04004KT 10SM -RA SCT003 OVC009 16/15 A3008 RMK AO2 SLP169 P0006 T01610150 $
  • 240933Z AUTO 00000KT 10SM -RA BKN004 BKN007 OVC100 16/15 A3008 RMK AO2 P0005 T01610150 $

TAF KCSV
Valid from the 24 at 12:00 until the 25 at 12:00 UTC


241120Z 2412/2512 32006KT 6SM -DZ BR BKN005 OVC012
TEMPO 2412/2416 2SM -SHRA BR OVC002
FM241600 02006KT 3SM -DZ BR OVC004
FM250000 00000KT 1/2SM -DZ FG VV001
KZTL FIR / North America



MET'MAP, your aeronautical weather chart ! - Copyright ORBIFLY December 2007 - Disclaimer

ORBIFLY MET'MAP TEAM :

Programming & Development : Alexandra Zaïnal
Concept & original design : Baudouin d'Aumeries
Assistance for programming : Marc-Olivier Méhu
Technical & hardware support : Manuel Goepfert

Contact : metmap@orbifly.com




SOURCES & CREDITS :

   NOAA       Earth
Advisory